Time;durP1;ratioP1;P1;durP2;ratioP2;P2;SDS_P1;SDS_P2;PMS_P1;PMS_P2;Temp;Humidity;BMP_temperature;BMP_pressure;BME280_temperature;BME280_humidity;BME280_pressure;Samples;Min_cycle;Max_cycle;Signal;HPM_P1;HPM_P2
2022/01/13 00:01:57;;;;;;;16.40;7.03;;;-6.40;99.90;;;;;;4948822;28;20058;-77
2022/01/13 00:04:23;;;;;;;20.02;8.02;;;-6.50;99.90;;;;;;4950109;28;20109;-77
2022/01/13 00:06:49;;;;;;;21.88;6.47;;;-6.50;99.90;;;;;;4951017;29;20043;-77
2022/01/13 00:09:15;;;;;;;13.05;5.88;;;-6.60;99.90;;;;;;4949171;29;20023;-77
2022/01/13 00:11:42;;;;;;;20.95;8.02;;;-5.40;99.90;;;;;;4950826;28;20241;-77
2022/01/13 00:14:23;;;;;;;23.63;6.65;;;-6.70;99.90;;;;;;4950331;28;20110;-77
2022/01/13 00:24:44;;;;;;;19.63;7.60;;;-6.40;99.90;;;;;;4950871;28;20439;-78
2022/01/13 00:27:12;;;;;;;16.30;7.88;;;-6.40;99.90;;;;;;4950488;28;20035;-77
2022/01/13 00:29:41;;;;;;;16.57;6.77;;;-6.50;99.90;;;;;;4948988;29;20031;-78
2022/01/13 00:32:07;;;;;;;;;;;-6.50;99.90;;;;;;4949025;29;20122;-77
2022/01/13 00:34:33;;;;;;;31.45;7.70;;;-6.60;99.90;;;;;;4948589;29;19906;-79
2022/01/13 00:36:59;;;;;;;15.00;6.57;;;-6.30;99.90;;;;;;4950104;29;20061;-78
2022/01/13 00:39:25;;;;;;;20.02;7.70;;;-6.20;99.90;;;;;;4948439;29;20122;-77
2022/01/13 00:41:51;;;;;;;20.73;7.40;;;-6.20;99.90;;;;;;4949140;29;20031;-78
2022/01/13 00:44:19;;;;;;;22.25;9.10;;;-5.90;99.90;;;;;;4948358;29;20027;-79
2022/01/13 00:46:47;;;;;;;19.25;7.75;;;-5.90;99.90;;;;;;4949666;28;20062;-78
2022/01/13 00:49:14;;;;;;;19.08;8.00;;;-6.00;99.90;;;;;;4949885;28;20106;-78
2022/01/13 00:51:41;;;;;;;25.02;7.70;;;-6.20;99.90;;;;;;4949666;29;20035;-78
2022/01/13 00:54:08;;;;;;;19.48;7.35;;;-6.40;99.90;;;;;;4949665;29;20348;-77
2022/01/13 00:56:35;;;;;;;18.27;8.00;;;-6.50;99.90;;;;;;4932729;29;20541;-77
2022/01/13 00:59:03;;;;;;;14.82;5.72;;;-6.70;99.90;;;;;;4932085;29;20031;-77
2022/01/13 01:01:29;;;;;;;13.10;6.40;;;-6.70;99.90;;;;;;4949517;29;20495;-77
2022/01/13 01:03:55;;;;;;;24.02;6.97;;;-6.80;99.90;;;;;;4949761;29;20070;-78
2022/01/13 01:06:21;;;;;;;21.83;8.25;;;-6.90;99.90;;;;;;4949622;29;20491;-77
2022/01/13 01:08:47;;;;;;;17.88;7.97;;;-6.90;99.90;;;;;;4950367;29;20065;-77
2022/01/13 01:11:13;;;;;;;22.45;6.93;;;-7.00;99.90;;;;;;4948852;28;20062;-77
2022/01/13 01:13:39;;;;;;;18.85;7.38;;;-7.00;99.90;;;;;;4932120;29;20023;-78
2022/01/13 01:16:08;;;;;;;15.27;6.85;;;-7.00;99.90;;;;;;4932328;29;20094;-77
2022/01/13 01:19:03;;;;;;;14.02;6.72;;;-7.00;99.90;;;;;;4949273;29;20098;-77
2022/01/13 01:31:34;;;;;;;13.32;5.85;;;-6.90;99.90;;;;;;4949043;29;20106;-77
2022/01/13 01:34:24;;;;;;;13.25;6.53;;;-7.00;99.90;;;;;;4948897;29;20056;-77
2022/01/13 01:36:51;;;;;;;15.30;6.03;;;-7.10;99.90;;;;;;4949400;29;20023;-77
2022/01/13 01:39:17;;;;;;;17.55;6.78;;;-7.10;99.90;;;;;;4948847;29;20034;-77
2022/01/13 01:41:49;;;;;;;19.08;7.53;;;-7.10;99.90;;;;;;4949028;29;20024;-78
2022/01/13 01:44:29;;;;;;;21.73;7.20;;;-7.10;99.90;;;;;;4948808;29;20148;-77
2022/01/13 01:46:58;;;;;;;20.02;6.03;;;-7.10;99.90;;;;;;4948779;29;20353;-77
2022/01/13 01:49:25;;;;;;;16.33;6.22;;;-7.10;99.90;;;;;;4948778;29;20028;-77
2022/01/13 01:51:54;;;;;;;29.73;7.13;;;-7.20;99.90;;;;;;4947462;29;20031;-77
2022/01/13 01:54:20;;;;;;;22.73;8.80;;;-7.30;99.90;;;;;;4948828;28;20027;-76
2022/01/13 01:56:46;;;;;;;15.65;6.82;;;-7.20;99.90;;;;;;4948950;28;20403;-78
2022/01/13 01:59:17;;;;;;;21.45;8.18;;;-7.10;99.90;;;;;;4949053;28;20488;-78
2022/01/13 02:01:44;;;;;;;13.48;5.57;;;-7.00;99.90;;;;;;4948604;28;20023;-77
2022/01/13 02:04:10;;;;;;;16.92;7.07;;;-7.10;99.90;;;;;;4947109;29;20071;-77
2022/01/13 02:06:37;;;;;;;21.02;6.90;;;-7.10;99.90;;;;;;4947419;29;20049;-77
2022/01/13 02:09:06;;;;;;;16.17;6.97;;;-7.10;99.90;;;;;;4948147;29;20027;-77
2022/01/13 02:11:42;;;;;;;14.73;6.28;;;-7.20;99.90;;;;;;4948419;28;20435;-79
2022/01/13 02:16:52;;;;;;;30.77;9.82;;;-7.20;99.90;;;;;;4948298;28;20652;-77
2022/01/13 02:19:19;;;;;;;18.13;7.13;;;-6.70;99.90;;;;;;4947218;29;20091;-77
2022/01/13 02:21:45;;;;;;;14.00;6.53;;;-6.70;99.90;;;;;;4948159;28;20290;-76
2022/01/13 02:24:11;;;;;;;18.05;6.72;;;-6.80;99.90;;;;;;4946610;29;20342;-77
2022/01/13 02:26:37;;;;;;;21.70;7.57;;;-6.70;99.90;;;;;;4949041;29;20039;-77
2022/01/13 02:29:03;;;;;;;12.43;5.90;;;-6.80;99.90;;;;;;4947180;29;20078;-78
2022/01/13 02:31:29;;;;;;;17.75;6.70;;;-7.00;99.90;;;;;;4948220;28;20039;-77
2022/01/13 02:33:55;;;;;;;20.15;6.55;;;-6.90;99.90;;;;;;4948581;29;20028;-77
2022/01/13 02:36:22;;;;;;;15.27;7.65;;;-6.70;99.90;;;;;;4948198;29;20043;-77
2022/01/13 02:38:53;;;;;;;18.75;6.00;;;-6.50;99.90;;;;;;4946525;28;20122;-78
2022/01/13 02:41:22;;;;;;;16.45;6.60;;;-6.50;99.90;;;;;;4947022;29;20738;-78
2022/01/13 02:43:49;;;;;;;21.45;7.55;;;-6.60;99.90;;;;;;4948035;28;20038;-77
2022/01/13 02:49:10;;;;;;;18.30;6.07;;;-6.80;99.90;;;;;;4948127;29;20039;-77
2022/01/13 02:51:38;;;;;;;20.73;6.97;;;-7.00;99.90;;;;;;4948420;29;20035;-77
2022/01/13 02:54:04;;;;;;;13.88;6.22;;;-6.90;99.90;;;;;;4948109;29;20387;-77
2022/01/13 02:56:32;;;;;;;22.05;7.55;;;-6.70;99.90;;;;;;4948142;29;20295;-77
2022/01/13 02:58:58;;;;;;;13.23;6.63;;;-6.60;99.90;;;;;;4948327;29;20502;-79
2022/01/13 03:01:24;;;;;;;18.83;7.30;;;-6.70;99.90;;;;;;4930695;29;20031;-77
2022/01/13 03:03:51;;;;;;;21.48;9.35;;;-6.80;99.90;;;;;;4946838;29;20079;-77
2022/01/13 03:06:27;;;;;;;19.35;7.10;;;-6.60;99.90;;;;;;4947725;29;20054;-77
2022/01/13 03:08:53;;;;;;;29.92;8.90;;;-6.60;99.90;;;;;;4948260;29;20091;-78
2022/01/13 03:11:23;;;;;;;17.17;7.25;;;-6.60;99.90;;;;;;4948194;29;20032;-77
2022/01/13 03:13:48;;;;;;;;;;;-6.70;99.90;;;;;;4947800;29;20424;-77
2022/01/13 03:16:15;;;;;;;16.25;6.47;;;-6.80;99.90;;;;;;4930273;29;20025;-78
2022/01/13 03:18:41;;;;;;;16.85;6.85;;;-6.80;99.90;;;;;;4930401;29;20043;-77
2022/01/13 03:21:08;;;;;;;22.70;7.63;;;-6.90;99.90;;;;;;4947575;29;20494;-78
2022/01/13 03:23:36;;;;;;;22.20;6.30;;;-7.10;99.90;;;;;;4948047;29;20035;-78
2022/01/13 03:26:02;;;;;;;15.82;7.40;;;-6.90;99.90;;;;;;4948192;29;20035;-78
2022/01/13 03:28:30;;;;;;;21.50;8.25;;;-6.90;99.90;;;;;;4947310;29;20039;-78
2022/01/13 03:30:58;;;;;;;17.92;8.02;;;-6.90;99.90;;;;;;4946580;29;20188;-78
2022/01/13 03:33:24;;;;;;;19.60;6.57;;;-7.00;99.90;;;;;;4947808;28;20036;-77
2022/01/13 03:35:49;;;;;;;21.10;7.90;;;-7.10;99.90;;;;;;4949933;29;20035;-78
2022/01/13 03:38:15;;;;;;;13.40;6.20;;;-7.20;99.90;;;;;;4951127;29;20086;-78
2022/01/13 03:40:42;;;;;;;15.85;6.97;;;-7.20;99.90;;;;;;4934176;29;20487;-78
2022/01/13 03:43:07;;;;;;;19.25;6.70;;;-7.30;99.90;;;;;;4933796;29;20106;-78
2022/01/13 03:45:33;;;;;;;16.20;6.15;;;-6.40;99.90;;;;;;4951259;29;20190;-77
2022/01/13 03:48:03;;;;;;;13.40;6.68;;;-7.30;99.90;;;;;;4953511;29;20090;-77
2022/01/13 03:50:29;;;;;;;17.25;6.53;;;-7.30;99.90;;;;;;4950705;29;20027;-78
2022/01/13 03:52:59;;;;;;;20.77;7.38;;;-7.40;99.90;;;;;;4951015;29;20396;-77
2022/01/13 03:55:38;;;;;;;12.25;5.63;;;-7.30;99.90;;;;;;4933526;29;20027;-77
2022/01/13 03:58:41;;;;;;;17.75;6.18;;;-7.30;99.90;;;;;;4950858;29;20070;-77
2022/01/13 04:01:44;;;;;;;16.67;6.45;;;-7.40;99.90;;;;;;4950716;29;20031;-77
2022/01/13 04:04:10;;;;;;;16.83;7.20;;;-7.10;99.90;;;;;;4932922;29;20364;-78
2022/01/13 04:06:38;;;;;;;15.60;5.05;;;-7.00;99.90;;;;;;4950950;29;20042;-78
2022/01/13 04:09:09;;;;;;;15.43;7.38;;;-7.00;99.90;;;;;;4950656;29;20377;-79
2022/01/13 04:11:35;;;;;;;14.32;5.78;;;-7.10;99.90;;;;;;4950507;29;20476;-77
2022/01/13 04:14:02;;;;;;;18.15;6.88;;;-7.00;99.90;;;;;;4950076;29;20038;-77
2022/01/13 04:16:37;;;;;;;19.02;7.85;;;-7.10;99.90;;;;;;4933397;29;20388;-77
2022/01/13 04:19:06;;;;;;;16.20;6.30;;;-7.10;99.90;;;;;;4950081;29;20055;-77
2022/01/13 04:21:38;;;;;;;15.43;5.90;;;-7.20;99.90;;;;;;4933304;29;20054;-78
2022/01/13 04:24:05;;;;;;;14.73;5.95;;;-3.90;99.90;;;;;;4950074;29;20538;-77
2022/01/13 04:26:33;;;;;;;8.85;5.68;;;-7.30;99.90;;;;;;4950063;29;20039;-78
2022/01/13 04:29:17;;;;;;;10.40;5.93;;;-7.30;99.90;;;;;;4950430;29;20016;-78
2022/01/13 04:31:45;;;;;;;14.57;5.63;;;-7.40;99.90;;;;;;4950010;29;20126;-77
2022/01/13 04:34:11;;;;;;;13.20;5.68;;;-7.30;99.90;;;;;;4932654;29;20106;-77
2022/01/13 04:36:37;;;;;;;22.02;6.18;;;-7.20;99.90;;;;;;4950064;29;20029;-77
2022/01/13 04:39:05;;;;;;;15.18;6.95;;;-7.20;99.90;;;;;;4950541;29;20109;-77
2022/01/13 04:41:34;;;;;;;16.13;5.50;;;-7.20;99.90;;;;;;4949811;29;20102;-77
2022/01/13 04:44:01;;;;;;;15.45;6.88;;;-7.10;99.90;;;;;;4949964;29;20416;-77
2022/01/13 04:46:27;;;;;;;20.80;7.30;;;-7.00;99.90;;;;;;4932070;29;20280;-77
2022/01/13 04:48:53;;;;;;;14.55;6.93;;;-7.00;99.90;;;;;;4936278;29;20066;-77
2022/01/13 04:51:19;;;;;;;17.08;6.35;;;-7.10;99.90;;;;;;4948538;29;20027;-77
2022/01/13 04:53:45;;;;;;;12.25;6.72;;;-7.40;99.90;;;;;;4948338;29;20031;-77
2022/01/13 04:56:26;;;;;;;14.02;5.38;;;-7.30;99.90;;;;;;4950029;28;20479;-77
2022/01/13 04:58:52;;;;;;;16.23;6.38;;;-7.20;99.90;;;;;;4949909;28;20545;-78
2022/01/13 05:01:17;;;;;;;14.65;6.40;;;-7.00;99.90;;;;;;4949267;28;20361;-79
2022/01/13 05:03:43;;;;;;;16.20;6.30;;;-7.00;99.90;;;;;;4949279;29;20041;-77
2022/01/13 05:06:09;;;;;;;15.90;6.10;;;-7.10;99.90;;;;;;4949895;28;20062;-77
2022/01/13 05:08:35;;;;;;;22.58;7.45;;;-7.20;99.90;;;;;;4949392;29;20094;-78
2022/01/13 05:11:00;;;;;;;18.98;6.93;;;-7.30;99.90;;;;;;4949741;29;20082;-79
2022/01/13 05:13:26;;;;;;;23.50;8.52;;;-9.00;99.90;;;;;;4949022;29;20034;-77
2022/01/13 05:15:54;;;;;;;22.55;6.97;;;-7.20;99.90;;;;;;4947803;28;20388;-77
2022/01/13 05:18:44;;;;;;;14.52;5.65;;;-7.20;99.90;;;;;;4949601;29;20034;-77
2022/01/13 05:21:21;;;;;;;23.33;9.05;;;-7.20;99.90;;;;;;4911046;29;20043;-77
2022/01/13 05:23:47;;;;;;;13.25;6.15;;;-7.30;99.90;;;;;;4911352;29;20059;-77
2022/01/13 05:26:12;;;;;;;12.35;4.70;;;-7.40;99.90;;;;;;4911522;29;20496;-79
2022/01/13 05:28:40;;;;;;;16.65;7.05;;;-7.40;99.90;;;;;;4911035;29;20032;-76
2022/01/13 05:31:10;;;;;;;12.07;5.47;;;-7.40;99.90;;;;;;4909722;29;20032;-77
2022/01/13 05:33:38;;;;;;;14.68;6.43;;;-7.30;99.90;;;;;;4910836;29;20107;-77
2022/01/13 05:36:04;;;;;;;17.23;6.93;;;-7.40;99.90;;;;;;4910836;29;20032;-77
2022/01/13 05:38:30;;;;;;;17.98;7.38;;;-7.10;99.90;;;;;;4911103;29;20024;-77
2022/01/13 05:40:58;;;;;;;13.35;6.45;;;-6.90;99.90;;;;;;4911246;29;20051;-77
2022/01/13 05:43:26;;;;;;;13.55;6.10;;;-6.90;99.90;;;;;;4910847;29;20032;-77
2022/01/13 05:45:52;;;;;;;21.48;7.80;;;-7.00;99.90;;;;;;4910741;29;20434;-76
2022/01/13 05:48:17;;;;;;;17.48;6.80;;;-7.10;99.90;;;;;;4909510;29;20043;-77
2022/01/13 05:50:43;;;;;;;13.20;6.97;;;-7.20;99.90;;;;;;4910535;29;20028;-79
2022/01/13 05:53:09;;;;;;;14.40;6.13;;;-7.10;99.90;;;;;;4910616;29;20032;-77
2022/01/13 05:55:35;;;;;;;21.27;6.85;;;-7.00;99.90;;;;;;4911126;29;20044;-79
2022/01/13 05:58:02;;;;;;;17.58;7.55;;;-7.10;99.90;;;;;;4908282;29;20024;-77
2022/01/13 06:00:28;;;;;;;21.85;8.77;;;-7.10;99.90;;;;;;4908955;29;20501;-77
2022/01/13 06:02:54;;;;;;;12.75;5.30;;;-6.90;99.90;;;;;;4911011;29;20062;-78
2022/01/13 06:05:20;;;;;;;21.55;6.78;;;-6.90;99.90;;;;;;4908572;29;20051;-78
2022/01/13 06:07:46;;;;;;;20.85;6.05;;;-6.90;99.90;;;;;;4910730;29;20013;-77
2022/01/13 06:10:18;;;;;;;21.08;6.55;;;-7.00;99.90;;;;;;4909116;29;20038;-77
2022/01/13 06:12:44;;;;;;;14.45;6.78;;;-7.10;99.90;;;;;;4910408;29;20503;-77
2022/01/13 06:15:12;;;;;;;22.10;6.13;;;-7.20;99.90;;;;;;4909548;29;20016;-78
2022/01/13 06:17:39;;;;;;;17.23;7.28;;;-6.10;99.90;;;;;;4910222;29;20063;-76
2022/01/13 06:20:07;;;;;;;18.45;6.45;;;-7.30;99.90;;;;;;4923155;29;20122;-76
2022/01/13 06:22:33;;;;;;;15.88;5.43;;;-7.50;99.90;;;;;;4931184;29;20094;-74
2022/01/13 06:24:59;;;;;;;14.68;6.55;;;-7.50;99.90;;;;;;4930442;29;20480;-78
2022/01/13 06:27:25;;;;;;;16.15;6.45;;;-7.50;99.90;;;;;;4929964;29;20038;-77
2022/01/13 06:29:52;;;;;;;14.82;7.13;;;-7.60;99.90;;;;;;4933481;29;20075;-77
2022/01/13 06:32:20;;;;;;;16.00;6.70;;;-7.60;99.90;;;;;;4949199;28;20093;-77
2022/01/13 06:34:46;;;;;;;19.40;6.25;;;-7.30;99.90;;;;;;4950908;29;20078;-77
2022/01/13 06:37:11;;;;;;;11.45;5.85;;;-7.70;99.90;;;;;;4947231;29;20089;-77
2022/01/13 06:39:38;;;;;;;17.52;6.28;;;-7.70;99.90;;;;;;4945435;29;20689;-77
2022/01/13 06:42:03;;;;;;;14.05;6.15;;;-9.00;99.90;;;;;;4943540;29;20158;-76
2022/01/13 06:44:29;;;;;;;17.63;6.57;;;-6.70;99.90;;;;;;4929089;29;20059;-77
2022/01/13 06:46:55;;;;;;;20.45;7.53;;;-7.70;99.90;;;;;;4946480;29;20515;-76
2022/01/13 06:49:21;;;;;;;20.35;5.82;;;-6.10;99.90;;;;;;4946377;29;20482;-76
2022/01/13 06:51:47;;;;;;;11.43;5.28;;;-7.70;99.90;;;;;;4946316;28;20700;-76
2022/01/13 06:54:13;;;;;;;15.95;5.90;;;-7.80;99.90;;;;;;4946969;28;20044;-76
2022/01/13 06:56:38;;;;;;;15.15;5.35;;;-7.80;99.90;;;;;;4947115;29;20031;-76
2022/01/13 06:59:10;;;;;;;15.65;6.53;;;-8.40;99.90;;;;;;4947684;29;20303;-76
2022/01/13 07:01:36;;;;;;;16.50;7.22;;;-7.70;99.90;;;;;;4946947;28;20155;-75
2022/01/13 07:04:02;;;;;;;18.95;8.57;;;-7.70;99.90;;;;;;4946465;29;20115;-75
2022/01/13 07:06:28;;;;;;;21.25;7.80;;;-7.40;99.90;;;;;;4945411;29;20505;-76
2022/01/13 07:08:53;;;;;;;16.63;6.07;;;-7.20;99.90;;;;;;4947676;28;20512;-76
2022/01/13 07:11:19;;;;;;;23.02;7.72;;;-7.10;99.90;;;;;;4952627;29;20023;-76
2022/01/13 07:13:44;;;;;;;18.88;7.85;;;-7.10;99.90;;;;;;4951919;29;20031;-76
2022/01/13 07:16:10;;;;;;;17.58;5.70;;;-7.10;99.90;;;;;;4956150;28;20105;-76
2022/01/13 07:18:39;;;;;;;15.02;6.32;;;-7.10;99.90;;;;;;4954925;28;20038;-76
2022/01/13 07:21:09;;;;;;;18.37;7.80;;;-7.30;99.90;;;;;;4957583;28;20031;-76
2022/01/13 07:23:35;;;;;;;15.68;6.32;;;-7.40;99.90;;;;;;4950992;28;20389;-77
2022/01/13 07:26:02;;;;;;;24.02;7.95;;;-7.20;99.90;;;;;;4931998;28;20485;-76
2022/01/13 07:28:29;;;;;;;23.10;9.23;;;-7.00;99.90;;;;;;4941755;28;20396;-77
2022/01/13 07:30:56;;;;;;;19.17;7.20;;;-6.80;99.90;;;;;;4935263;28;20035;-76
2022/01/13 07:33:21;;;;;;;24.70;8.25;;;-6.80;99.90;;;;;;4952544;28;20027;-76
2022/01/13 07:35:47;;;;;;;21.10;7.55;;;-6.80;99.90;;;;;;4951020;28;20027;-75
2022/01/13 07:38:13;;;;;;;21.45;7.53;;;-6.90;99.90;;;;;;4951314;29;20066;-76
2022/01/13 07:40:38;;;;;;;22.45;7.53;;;-7.00;99.90;;;;;;4951905;29;20035;-76
2022/01/13 07:43:04;;;;;;;22.33;8.15;;;-7.00;99.90;;;;;;4950034;29;20035;-76
2022/01/13 07:45:30;;;;;;;21.23;6.82;;;-6.90;99.90;;;;;;4953018;29;20384;-77
2022/01/13 07:47:56;;;;;;;16.80;6.90;;;-6.90;99.90;;;;;;4954265;29;20046;-76
2022/01/13 07:50:22;;;;;;;21.30;7.78;;;-6.90;99.90;;;;;;4951053;29;20351;-76
2022/01/13 07:52:48;;;;;;;23.25;7.15;;;-7.00;99.90;;;;;;4951428;28;20030;-76
2022/01/13 07:55:13;;;;;;;28.50;7.63;;;-6.90;99.90;;;;;;4948606;29;20475;-76
2022/01/13 07:57:39;;;;;;;26.00;9.35;;;-6.80;99.90;;;;;;4949288;29;20031;-76
2022/01/13 08:00:08;;;;;;;19.58;7.25;;;-6.60;99.90;;;;;;4950701;29;20047;-76
2022/01/13 08:02:34;;;;;;;23.58;7.28;;;-6.40;99.90;;;;;;4950677;28;20392;-76
2022/01/13 08:05:00;;;;;;;25.35;9.38;;;-6.40;99.90;;;;;;4948868;29;20027;-76
2022/01/13 08:07:26;;;;;;;17.60;6.00;;;-6.40;99.90;;;;;;4952147;29;20390;-76
2022/01/13 08:09:51;;;;;;;21.60;7.65;;;-6.40;99.90;;;;;;4950971;29;20359;-76
2022/01/13 08:12:17;;;;;;;21.88;7.53;;;-4.00;99.90;;;;;;4951791;29;20086;-76
2022/01/13 08:14:43;;;;;;;20.08;6.63;;;-6.50;99.90;;;;;;4951228;29;20070;-76
2022/01/13 08:17:18;;;;;;;23.15;7.88;;;-6.50;99.90;;;;;;4950233;28;20024;-77
2022/01/13 08:19:48;;;;;;;24.52;7.80;;;-6.50;99.90;;;;;;4951688;28;20142;-76
2022/01/13 08:22:15;;;;;;;20.42;6.35;;;-6.50;99.90;;;;;;4950224;28;20100;-76
2022/01/13 08:24:42;;;;;;;29.58;9.07;;;-6.50;99.90;;;;;;4949917;28;20122;-76
2022/01/13 08:27:08;;;;;;;24.70;8.65;;;-4.10;99.90;;;;;;4950111;28;20043;-76
2022/01/13 08:29:34;;;;;;;25.50;9.30;;;-4.30;99.90;;;;;;4950881;28;20034;-76
2022/01/13 08:32:00;;;;;;;25.05;7.05;;;-6.20;99.90;;;;;;4949889;29;20495;-76
2022/01/13 08:34:25;;;;;;;20.50;7.13;;;-6.10;99.90;;;;;;4949382;29;20027;-76
2022/01/13 08:36:51;;;;;;;24.90;7.95;;;-5.80;99.90;;;;;;4950338;29;20027;-76
2022/01/13 08:39:17;;;;;;;24.58;9.55;;;-5.70;99.90;;;;;;4950610;29;20376;-77
2022/01/13 08:41:43;;;;;;;26.35;8.10;;;-5.60;99.90;;;;;;4949655;29;20106;-76
2022/01/13 08:44:10;;;;;;;21.67;7.40;;;-5.60;99.90;;;;;;4948380;29;20034;-76
2022/01/13 08:46:35;;;;;;;21.52;7.82;;;-5.50;99.90;;;;;;4949992;28;20035;-76
2022/01/13 08:49:02;;;;;;;25.17;9.95;;;-5.50;99.90;;;;;;4951719;29;20035;-77
2022/01/13 08:51:28;;;;;;;22.48;9.27;;;-5.30;99.90;;;;;;4949814;29;20015;-78
2022/01/13 08:53:53;;;;;;;18.83;7.70;;;-5.00;99.90;;;;;;4956627;28;20031;-74
2022/01/13 08:56:19;;;;;;;22.55;9.30;;;-4.90;99.90;;;;;;4957700;29;20082;-77
2022/01/13 08:58:46;;;;;;;29.10;9.10;;;-4.80;99.90;;;;;;4948843;29;20110;-77
2022/01/13 09:01:12;;;;;;;17.35;6.88;;;-3.60;99.90;;;;;;4949956;29;20526;-77
2022/01/13 09:03:38;;;;;;;29.02;9.27;;;-3.10;99.90;;;;;;4931570;29;20032;-77
2022/01/13 09:06:05;;;;;;;23.85;8.73;;;-4.60;99.90;;;;;;4947893;29;20041;-77
2022/01/13 09:08:30;;;;;;;29.33;10.45;;;-4.30;99.90;;;;;;4950276;29;20081;-76
2022/01/13 09:10:56;;;;;;;27.23;10.57;;;-4.40;99.90;;;;;;4950210;29;20464;-77
2022/01/13 09:13:23;;;;;;;26.83;10.20;;;-4.10;99.90;;;;;;4953201;29;20331;-75
2022/01/13 09:15:58;;;;;;;29.27;10.73;;;-4.10;99.90;;;;;;4956001;29;20027;-76
2022/01/13 09:18:58;;;;;;;37.10;11.40;;;-3.90;99.90;;;;;;4953576;29;20031;-78
2022/01/13 09:21:26;;;;;;;37.38;13.77;;;-2.10;99.90;;;;;;4953817;29;20050;-78
2022/01/13 09:23:53;;;;;;;29.40;12.00;;;-3.60;99.90;;;;;;4951770;29;20019;-78
2022/01/13 09:26:18;;;;;;;36.40;12.93;;;-3.60;99.90;;;;;;4963171;28;20055;-76
2022/01/13 09:28:45;;;;;;;31.80;13.15;;;-3.50;99.90;;;;;;4959703;29;20317;-76
2022/01/13 09:31:11;;;;;;;40.72;14.30;;;-3.30;99.90;;;;;;4953517;28;20345;-76
2022/01/13 09:33:37;;;;;;;40.88;14.75;;;-2.00;99.90;;;;;;4951151;28;20042;-77
2022/01/13 09:36:06;;;;;;;32.67;12.40;;;-3.10;99.90;;;;;;4957641;29;20114;-76
2022/01/13 09:38:31;;;;;;;38.15;13.65;;;-3.00;99.90;;;;;;4956207;29;20031;-78
2022/01/13 09:40:57;;;;;;;33.00;12.73;;;-2.70;99.90;;;;;;4952907;29;20122;-77
2022/01/13 09:43:25;;;;;;;36.38;11.98;;;-2.80;99.90;;;;;;4950125;29;20035;-77
2022/01/13 09:45:53;;;;;;;26.48;11.88;;;-2.80;99.90;;;;;;4949069;29;20053;-77
2022/01/13 09:48:19;;;;;;;42.58;14.05;;;-2.70;99.90;;;;;;4951748;29;20228;-78
2022/01/13 09:50:46;;;;;;;37.95;14.23;;;-1.60;99.90;;;;;;4939934;29;20141;-77
2022/01/13 09:53:13;;;;;;;31.92;13.00;;;-2.70;99.90;;;;;;4929179;29;20384;-78
2022/01/13 09:55:43;;;;;;;34.83;13.60;;;-2.10;99.90;;;;;;4929075;29;20035;-76
2022/01/13 09:58:11;;;;;;;39.65;14.52;;;-2.60;99.90;;;;;;4944733;29;20023;-76
2022/01/13 10:00:39;;;;;;;39.97;13.85;;;-1.80;99.90;;;;;;4947916;29;20400;-75
2022/01/13 10:03:25;;;;;;;35.42;12.85;;;-2.40;99.90;;;;;;4950793;29;20042;-76
2022/01/13 10:05:58;;;;;;;32.95;11.50;;;-1.90;99.90;;;;;;4949508;29;20372;-77
2022/01/13 10:08:50;;;;;;;30.63;12.32;;;-2.30;99.90;;;;;;4949170;29;20030;-77
2022/01/13 10:11:36;;;;;;;26.35;11.35;;;-2.30;99.90;;;;;;4952707;29;20035;-77
2022/01/13 10:17:18;;;;;;;33.28;13.95;;;-2.10;99.90;;;;;;4950616;29;20444;-79
2022/01/13 10:19:45;;;;;;;28.52;11.32;;;-2.00;99.90;;;;;;4942310;29;20059;-77
2022/01/13 10:22:14;;;;;;;31.27;12.05;;;-1.40;99.90;;;;;;4959126;29;20437;-78
2022/01/13 10:24:42;;;;;;;28.27;12.13;;;-1.70;99.90;;;;;;4957162;29;20524;-78
2022/01/13 10:27:18;;;;;;;25.75;11.10;;;-1.20;99.90;;;;;;4939026;29;20090;-78
2022/01/13 10:29:53;;;;;;;39.70;12.55;;;-1.90;99.90;;;;;;4941961;29;20049;-77
2022/01/13 10:32:33;;;;;;;39.22;13.90;;;-1.80;99.90;;;;;;4956529;29;20031;-78
2022/01/13 10:35:14;;;;;;;31.48;11.75;;;-1.80;99.90;;;;;;4948965;29;20034;-77
2022/01/13 10:37:44;;;;;;;30.77;12.05;;;-1.80;99.90;;;;;;4937288;29;20131;-78
2022/01/13 10:40:29;;;;;;;29.42;12.40;;;-1.70;99.90;;;;;;4956989;29;20331;-77
2022/01/13 10:45:28;;;;;;;23.73;9.98;;;-1.20;99.90;;;;;;4963438;28;20050;-78
2022/01/13 10:48:19;;;;;;;28.50;11.13;;;-1.50;99.90;;;;;;4960911;28;20023;-77
2022/01/13 10:51:04;;;;;;;31.73;11.32;;;-1.50;99.90;;;;;;4951105;28;20073;-77
2022/01/13 10:53:38;;;;;;;17.05;8.35;;;-1.50;99.90;;;;;;4959744;28;20024;-78
2022/01/13 10:56:06;;;;;;;37.63;14.77;;;-3.50;99.90;;;;;;4961974;28;20046;-76
2022/01/13 10:58:38;;;;;;;30.98;11.05;;;-1.40;99.90;;;;;;4965637;28;20097;-77
2022/01/13 11:01:04;;;;;;;27.05;9.80;;;-1.40;99.90;;;;;;4954566;28;20038;-78
2022/01/13 11:03:33;;;;;;;22.35;9.20;;;-1.20;99.90;;;;;;4955541;28;20093;-77
2022/01/13 11:06:05;;;;;;;25.30;11.18;;;-1.20;99.90;;;;;;4970861;28;20035;-77
2022/01/13 11:08:40;;;;;;;29.30;10.50;;;-0.80;99.90;;;;;;4971028;28;20488;-79
2022/01/13 11:11:06;;;;;;;23.38;8.40;;;-1.00;99.90;;;;;;4970738;28;20035;-76
2022/01/13 11:13:39;;;;;;;27.20;11.23;;;-1.00;99.90;;;;;;4970674;28;20165;-79
2022/01/13 11:16:04;;;;;;;33.78;11.90;;;-0.90;99.90;;;;;;4953439;28;20061;-79
2022/01/13 11:18:33;;;;;;;26.77;11.13;;;-1.10;99.90;;;;;;4971643;28;20054;-78
2022/01/13 11:21:01;;;;;;;32.53;10.93;;;-1.10;99.90;;;;;;4954591;28;20621;-78
2022/01/13 11:23:28;;;;;;;22.90;9.47;;;-1.10;99.90;;;;;;4975406;28;20312;-78
2022/01/13 11:25:57;;;;;;;24.75;10.93;;;-1.00;99.90;;;;;;4945156;28;20062;-79
2022/01/13 11:28:23;;;;;;;32.70;12.93;;;-0.80;99.90;;;;;;4934335;29;20027;-78
2022/01/13 11:30:50;;;;;;;27.38;11.88;;;0.10;99.90;;;;;;4933777;29;20451;-79
2022/01/13 11:33:22;;;;;;;26.70;11.43;;;-0.90;99.90;;;;;;4936665;28;20089;-78
2022/01/13 11:35:55;;;;;;;30.63;10.75;;;-0.90;99.90;;;;;;4944408;28;20313;-78
2022/01/13 11:38:23;;;;;;;22.20;9.73;;;-0.50;99.90;;;;;;4959201;28;20027;-78
2022/01/13 11:40:52;;;;;;;28.35;10.73;;;-0.50;99.90;;;;;;4934673;29;20027;-78
2022/01/13 11:43:32;;;;;;;29.73;9.30;;;-0.40;99.90;;;;;;4933463;29;20027;-77
2022/01/13 11:46:27;;;;;;;;;;;-0.40;99.90;;;;;;4933545;29;20496;-77
2022/01/13 11:49:18;;;;;;;24.73;8.70;;;-0.40;99.90;;;;;;4928253;29;20001;-77
2022/01/13 11:51:55;;;;;;;25.42;12.23;;;-0.40;99.90;;;;;;4952961;28;20272;-78
2022/01/13 11:54:31;;;;;;;23.83;9.15;;;-0.30;99.90;;;;;;4950411;28;20106;-76
2022/01/13 11:57:13;;;;;;;24.33;9.18;;;-0.20;99.90;;;;;;4950393;28;20028;-78
2022/01/13 11:59:46;;;;;;;31.33;10.18;;;1.00;99.90;;;;;;4952610;29;20023;-77
2022/01/13 12:02:26;;;;;;;26.35;10.52;;;-0.10;99.90;;;;;;4954734;29;20039;-78
2022/01/13 12:05:04;;;;;;;25.25;10.43;;;-0.20;99.90;;;;;;4957634;29;20086;-77
2022/01/13 12:07:38;;;;;;;17.48;7.70;;;0.00;99.90;;;;;;4932582;29;20059;-79
2022/01/13 12:10:06;;;;;;;26.33;10.10;;;0.00;99.90;;;;;;4954110;29;20721;-77
2022/01/13 12:12:33;;;;;;;24.08;9.75;;;0.10;99.90;;;;;;4950680;29;20035;-77
2022/01/13 12:15:14;;;;;;;29.10;12.82;;;0.10;99.90;;;;;;4932627;29;20022;-77
2022/01/13 12:17:56;;;;;;;28.95;10.55;;;0.00;99.90;;;;;;4932025;29;20023;-78
2022/01/13 12:20:53;;;;;;;28.23;11.40;;;1.80;99.90;;;;;;4949199;29;20075;-77
2022/01/13 12:23:37;;;;;;;23.05;9.95;;;0.10;99.90;;;;;;4932126;29;20071;-80
2022/01/13 12:26:23;;;;;;;14.80;6.88;;;0.10;99.90;;;;;;4949167;29;20439;-79
2022/01/13 12:29:08;;;;;;;26.73;10.13;;;0.30;99.90;;;;;;4930806;29;20034;-78
2022/01/13 12:31:34;;;;;;;23.13;9.90;;;0.30;99.90;;;;;;4949163;29;20162;-78
2022/01/13 12:33:59;;;;;;;22.60;10.52;;;0.30;99.90;;;;;;4948476;29;20102;-80
2022/01/13 12:36:25;;;;;;;19.88;7.97;;;0.30;99.90;;;;;;4949504;29;20047;-78
2022/01/13 12:39:02;;;;;;;24.17;9.07;;;0.30;99.90;;;;;;4949904;29;20023;-79
2022/01/13 12:41:29;;;;;;;24.48;9.80;;;0.40;99.90;;;;;;4950436;29;20130;-84
2022/01/13 12:44:19;;;;;;;21.95;9.68;;;0.90;99.90;;;;;;4950300;29;20073;-80
2022/01/13 12:46:46;;;;;;;19.67;8.10;;;1.50;99.90;;;;;;4950017;29;20475;-80
2022/01/13 12:49:13;;;;;;;21.98;8.30;;;0.50;99.90;;;;;;4948388;29;20575;-80
2022/01/13 12:51:38;;;;;;;24.45;10.90;;;1.20;99.90;;;;;;4953995;29;20443;-80
2022/01/13 12:54:04;;;;;;;18.13;8.93;;;0.30;99.90;;;;;;4952941;29;20020;-82
2022/01/13 12:56:30;;;;;;;22.17;8.82;;;1.40;99.90;;;;;;4949829;29;20471;-78
2022/01/13 12:59:02;;;;;;;22.85;10.73;;;0.60;99.90;;;;;;4949779;29;20027;-83
2022/01/13 13:01:31;;;;;;;21.65;9.10;;;1.30;99.90;;;;;;4949823;29;20455;-80
2022/01/13 13:04:13;;;;;;;18.52;8.43;;;0.60;99.90;;;;;;4929468;29;20540;-79
2022/01/13 13:06:43;;;;;;;20.83;10.00;;;0.60;99.90;;;;;;4933274;29;20036;-80
2022/01/13 13:09:15;;;;;;;27.08;11.10;;;0.50;99.90;;;;;;4913973;29;20560;-83
2022/01/13 13:11:49;;;;;;;22.65;8.75;;;0.60;99.90;;;;;;4930053;29;20039;-79
2022/01/13 13:17:29;;;;;;;23.17;8.93;;;0.90;99.90;;;;;;4931343;29;20280;-79
2022/01/13 13:19:55;;;;;;;20.98;8.35;;;1.50;99.90;;;;;;4930529;29;20059;-79